createdAt,value
2023-01-26T00:09:39.607Z,102641.53
2023-01-26T00:20:00.941Z,102623.38
2023-01-26T00:30:22.319Z,102619.91
2023-01-26T00:40:43.677Z,102611.59
2023-01-26T00:51:05.107Z,102612.53
2023-01-26T01:01:26.443Z,102594.81
2023-01-26T01:11:47.860Z,102594.72
2023-01-26T01:22:10.088Z,102593.00
2023-01-26T01:32:31.481Z,102590.72
2023-01-26T01:42:52.818Z,102594.34
2023-01-26T01:53:18.132Z,102580.78
2023-01-26T02:03:40.975Z,102581.75
2023-01-26T02:14:06.738Z,102575.06
2023-01-26T02:24:33.319Z,102581.19
2023-01-26T02:34:57.948Z,102564.34
2023-01-26T02:45:20.705Z,102558.75
2023-01-26T02:55:42.040Z,102556.31
2023-01-26T03:06:03.453Z,102547.88
2023-01-26T03:16:24.819Z,102545.41
2023-01-26T03:27:04.911Z,102542.19
2023-01-26T03:37:26.291Z,102542.28
2023-01-26T03:48:06.335Z,102524.50
2023-01-26T03:58:30.200Z,102523.75
2023-01-26T04:08:51.557Z,102509.34
2023-01-26T04:19:31.731Z,102514.44
2023-01-26T04:29:53.067Z,102508.69
2023-01-26T04:40:14.675Z,102507.16
2023-01-26T04:50:36.231Z,102507.16
2023-01-26T05:00:58.023Z,102497.06
2023-01-26T05:11:19.447Z,102481.09
2023-01-26T05:21:40.854Z,102476.06
2023-01-26T05:32:02.258Z,102473.53
2023-01-26T05:42:24.100Z,102477.94
2023-01-26T05:52:49.876Z,102493.44
2023-01-26T06:03:11.286Z,102486.00
2023-01-26T06:13:32.664Z,102487.81
2023-01-26T06:23:54.231Z,102492.13
2023-01-26T06:34:15.639Z,102499.13
2023-01-26T06:44:37.033Z,102508.75
2023-01-26T06:55:03.067Z,102512.97
2023-01-26T07:05:24.423Z,102517.53
2023-01-26T07:15:45.770Z,102516.09
2023-01-26T07:26:07.471Z,102515.34
2023-01-26T07:36:29.300Z,102529.97
2023-01-26T07:46:50.686Z,102537.19
2023-01-26T07:57:12.734Z,102523.75
2023-01-26T08:07:34.169Z,102522.91
2023-01-26T08:17:55.708Z,102530.66
2023-01-26T08:28:17.119Z,102547.09
2023-01-26T08:38:38.560Z,102550.81
2023-01-26T08:49:00.557Z,102543.38
2023-01-26T08:59:22.018Z,102556.34
2023-01-26T09:09:43.535Z,102566.03
2023-01-26T09:20:06.088Z,102567.38
2023-01-26T09:30:27.765Z,102563.84
2023-01-26T09:41:08.040Z,102559.66
2023-01-26T09:51:33.442Z,102549.44
2023-01-26T10:02:13.170Z,102557.44
2023-01-26T10:12:36.306Z,102543.25
2023-01-26T10:23:02.371Z,102546.97
2023-01-26T10:33:26.328Z,102548.97
2023-01-26T10:43:57.120Z,102538.06
2023-01-26T10:54:18.496Z,102545.00
2023-01-26T11:04:39.948Z,102533.66
2023-01-26T11:15:06.157Z,102531.03
2023-01-26T11:25:36.751Z,102526.50
2023-01-26T11:36:11.453Z,102517.47
2023-01-26T11:46:52.723Z,102502.88
2023-01-26T11:57:23.379Z,102494.28
2023-01-26T12:07:51.381Z,102486.13
2023-01-26T12:18:42.242Z,102476.94
2023-01-26T12:29:28.625Z,102457.41
2023-01-26T12:39:52.991Z,102444.66
2023-01-26T12:50:20.377Z,102436.22
2023-01-26T13:00:51.113Z,102425.94
2023-01-26T13:11:33.282Z,102430.38
2023-01-26T13:21:54.624Z,102425.25
2023-01-26T13:32:16.624Z,102421.88
2023-01-26T13:42:41.570Z,102423.59
2023-01-26T13:53:03.018Z,102423.66
2023-01-26T14:03:24.548Z,102434.03
2023-01-26T14:13:50.226Z,102424.53
2023-01-26T14:24:11.911Z,102432.34
2023-01-26T14:34:33.395Z,102431.50
2023-01-26T14:44:54.839Z,102422.06
2023-01-26T14:55:26.276Z,102412.59
2023-01-26T15:05:47.653Z,102417.72
2023-01-26T15:16:19.695Z,102416.84
2023-01-26T15:26:41.469Z,102434.81
2023-01-26T15:37:23.112Z,102440.63
2023-01-26T15:47:44.505Z,102459.34
2023-01-26T15:58:05.882Z,102471.22
2023-01-26T16:08:27.280Z,102478.72
2023-01-26T16:18:48.647Z,102490.69
2023-01-26T16:29:10.032Z,102481.25
2023-01-26T16:39:31.493Z,102491.44
2023-01-26T16:49:52.882Z,102493.03
2023-01-26T17:00:18.726Z,102504.97
2023-01-26T17:10:51.922Z,102497.22
2023-01-26T17:21:21.873Z,102509.09
2023-01-26T17:31:43.400Z,102502.22
2023-01-26T17:42:04.881Z,102513.34
2023-01-26T17:52:26.251Z,102523.63
2023-01-26T18:02:47.603Z,102530.31
2023-01-26T18:13:08.949Z,102531.13
2023-01-26T18:23:30.338Z,102540.47
2023-01-26T18:33:52.190Z,102548.06
2023-01-26T18:44:13.676Z,102574.63
2023-01-26T18:54:35.032Z,102586.56
2023-01-26T19:04:57.427Z,102587.31
2023-01-26T19:15:18.838Z,102588.97
2023-01-26T19:25:40.269Z,102584.72
2023-01-26T19:36:02.639Z,102592.38
2023-01-26T19:46:24.103Z,102598.41
2023-01-26T19:56:45.548Z,102611.41
2023-01-26T20:07:07.739Z,102625.00
2023-01-26T20:17:29.120Z,102635.03
2023-01-26T20:27:50.504Z,102632.25
2023-01-26T20:38:11.943Z,102644.22
2023-01-26T20:48:33.376Z,102645.00
2023-01-26T20:58:55.483Z,102653.59
2023-01-26T21:09:16.957Z,102659.59
2023-01-26T21:19:40.109Z,102669.06
2023-01-26T21:30:01.532Z,102678.34
2023-01-26T21:40:23.095Z,102675.78
2023-01-26T21:51:03.214Z,102680.88
2023-01-26T22:01:24.699Z,102674.00
2023-01-26T22:11:46.076Z,102679.97
2023-01-26T22:22:07.477Z,102691.91
2023-01-26T22:32:29.297Z,102676.41
2023-01-26T22:42:51.236Z,102689.41
2023-01-26T22:53:13.587Z,102694.50
2023-01-26T23:03:35.190Z,102691.97
2023-01-26T23:13:57.946Z,102700.69
2023-01-26T23:24:19.374Z,102694.72
2023-01-26T23:34:40.761Z,102696.38
2023-01-26T23:45:02.117Z,102693.97
2023-01-26T23:55:23.529Z,102700.09
